sensor_id;sensor_type;location;lat;lon;timestamp;P1;durP1;ratioP1;P2;durP2;ratioP2
57055;SDS011;42945;51.718;5.324;2023-08-06T00:02:03;7.40;;;3.40;;
57055;SDS011;42945;51.718;5.324;2023-08-06T00:07:50;6.85;;;4.35;;
57055;SDS011;42945;51.718;5.324;2023-08-06T00:13:38;6.93;;;4.45;;
57055;SDS011;42945;51.718;5.324;2023-08-06T00:19:25;6.88;;;3.55;;
57055;SDS011;42945;51.718;5.324;2023-08-06T00:25:14;10.55;;;3.85;;
57055;SDS011;42945;51.718;5.324;2023-08-06T00:31:03;8.50;;;3.95;;
57055;SDS011;42945;51.718;5.324;2023-08-06T00:36:50;7.90;;;3.80;;
57055;SDS011;42945;51.718;5.324;2023-08-06T00:42:40;8.43;;;4.10;;
57055;SDS011;42945;51.718;5.324;2023-08-06T00:48:27;7.53;;;3.72;;
57055;SDS011;42945;51.718;5.324;2023-08-06T00:54:16;4.95;;;3.33;;
57055;SDS011;42945;51.718;5.324;2023-08-06T01:00:04;5.60;;;3.30;;
57055;SDS011;42945;51.718;5.324;2023-08-06T01:05:52;4.75;;;2.95;;
57055;SDS011;42945;51.718;5.324;2023-08-06T01:11:48;6.95;;;3.00;;
57055;SDS011;42945;51.718;5.324;2023-08-06T01:17:53;7.55;;;3.47;;
57055;SDS011;42945;51.718;5.324;2023-08-06T01:23:42;8.18;;;3.63;;
57055;SDS011;42945;51.718;5.324;2023-08-06T01:29:39;7.78;;;3.25;;
57055;SDS011;42945;51.718;5.324;2023-08-06T01:35:32;7.68;;;3.88;;
57055;SDS011;42945;51.718;5.324;2023-08-06T01:41:23;6.35;;;3.83;;
57055;SDS011;42945;51.718;5.324;2023-08-06T01:47:10;7.50;;;3.88;;
57055;SDS011;42945;51.718;5.324;2023-08-06T01:53:00;8.10;;;3.95;;
57055;SDS011;42945;51.718;5.324;2023-08-06T01:58:48;8.70;;;4.60;;
57055;SDS011;42945;51.718;5.324;2023-08-06T02:04:36;7.85;;;4.22;;
57055;SDS011;42945;51.718;5.324;2023-08-06T02:10:23;7.68;;;4.35;;
57055;SDS011;42945;51.718;5.324;2023-08-06T02:16:11;8.43;;;4.10;;
57055;SDS011;42945;51.718;5.324;2023-08-06T02:21:59;11.55;;;4.63;;
57055;SDS011;42945;51.718;5.324;2023-08-06T02:27:49;6.53;;;4.40;;
57055;SDS011;42945;51.718;5.324;2023-08-06T02:33:37;9.43;;;4.25;;
57055;SDS011;42945;51.718;5.324;2023-08-06T02:39:25;7.30;;;4.68;;
57055;SDS011;42945;51.718;5.324;2023-08-06T02:45:13;9.00;;;4.40;;
57055;SDS011;42945;51.718;5.324;2023-08-06T02:51:02;8.20;;;4.50;;
57055;SDS011;42945;51.718;5.324;2023-08-06T02:56:52;6.63;;;4.27;;
57055;SDS011;42945;51.718;5.324;2023-08-06T03:06:29;8.18;;;5.05;;
57055;SDS011;42945;51.718;5.324;2023-08-06T03:12:17;8.90;;;4.88;;
57055;SDS011;42945;51.718;5.324;2023-08-06T03:18:05;8.37;;;4.33;;
57055;SDS011;42945;51.718;5.324;2023-08-06T03:23:52;7.75;;;4.70;;
57055;SDS011;42945;51.718;5.324;2023-08-06T03:29:40;6.97;;;4.30;;
57055;SDS011;42945;51.718;5.324;2023-08-06T03:35:28;7.82;;;4.70;;
57055;SDS011;42945;51.718;5.324;2023-08-06T03:41:15;7.38;;;4.35;;
57055;SDS011;42945;51.718;5.324;2023-08-06T03:47:04;9.85;;;4.85;;
57055;SDS011;42945;51.718;5.324;2023-08-06T03:52:52;7.15;;;4.55;;
57055;SDS011;42945;51.718;5.324;2023-08-06T03:58:39;7.45;;;4.80;;
57055;SDS011;42945;51.718;5.324;2023-08-06T04:04:28;10.55;;;5.03;;
57055;SDS011;42945;51.718;5.324;2023-08-06T04:10:15;10.55;;;5.22;;
57055;SDS011;42945;51.718;5.324;2023-08-06T04:16:03;8.00;;;4.35;;
57055;SDS011;42945;51.718;5.324;2023-08-06T04:21:52;11.60;;;5.03;;
57055;SDS011;42945;51.718;5.324;2023-08-06T04:27:40;11.02;;;4.72;;
57055;SDS011;42945;51.718;5.324;2023-08-06T04:33:29;12.95;;;5.53;;
57055;SDS011;42945;51.718;5.324;2023-08-06T04:39:17;11.02;;;5.55;;
57055;SDS011;42945;51.718;5.324;2023-08-06T04:45:05;9.88;;;5.40;;
57055;SDS011;42945;51.718;5.324;2023-08-06T04:50:54;11.35;;;6.07;;
57055;SDS011;42945;51.718;5.324;2023-08-06T04:56:42;14.27;;;5.57;;
57055;SDS011;42945;51.718;5.324;2023-08-06T05:02:30;9.50;;;6.50;;
57055;SDS011;42945;51.718;5.324;2023-08-06T05:08:25;10.55;;;6.28;;
57055;SDS011;42945;51.718;5.324;2023-08-06T05:14:13;12.23;;;6.57;;
57055;SDS011;42945;51.718;5.324;2023-08-06T05:20:02;9.32;;;6.15;;
57055;SDS011;42945;51.718;5.324;2023-08-06T05:25:51;10.68;;;6.70;;
57055;SDS011;42945;51.718;5.324;2023-08-06T05:31:39;12.90;;;6.60;;
57055;SDS011;42945;51.718;5.324;2023-08-06T05:37:27;10.55;;;6.15;;
57055;SDS011;42945;51.718;5.324;2023-08-06T05:43:21;12.15;;;6.78;;
57055;SDS011;42945;51.718;5.324;2023-08-06T05:49:10;14.65;;;8.13;;
57055;SDS011;42945;51.718;5.324;2023-08-06T05:55:00;11.75;;;6.95;;
57055;SDS011;42945;51.718;5.324;2023-08-06T06:00:47;9.50;;;6.25;;
57055;SDS011;42945;51.718;5.324;2023-08-06T06:06:34;11.05;;;6.88;;
57055;SDS011;42945;51.718;5.324;2023-08-06T06:12:23;14.85;;;7.18;;
57055;SDS011;42945;51.718;5.324;2023-08-06T06:18:13;9.60;;;6.63;;
57055;SDS011;42945;51.718;5.324;2023-08-06T06:24:01;11.40;;;6.25;;
57055;SDS011;42945;51.718;5.324;2023-08-06T06:29:50;11.88;;;7.32;;
57055;SDS011;42945;51.718;5.324;2023-08-06T06:35:39;17.27;;;8.65;;
57055;SDS011;42945;51.718;5.324;2023-08-06T06:41:28;16.20;;;9.73;;
57055;SDS011;42945;51.718;5.324;2023-08-06T06:47:18;17.90;;;10.25;;
57055;SDS011;42945;51.718;5.324;2023-08-06T06:53:07;24.05;;;13.85;;
57055;SDS011;42945;51.718;5.324;2023-08-06T06:58:54;16.45;;;9.88;;
57055;SDS011;42945;51.718;5.324;2023-08-06T07:04:42;2.03;;;1.83;;
57055;SDS011;42945;51.718;5.324;2023-08-06T07:10:29;1.27;;;1.13;;
57055;SDS011;42945;51.718;5.324;2023-08-06T07:16:17;1.77;;;1.07;;
57055;SDS011;42945;51.718;5.324;2023-08-06T07:22:05;5.15;;;2.10;;
57055;SDS011;42945;51.718;5.324;2023-08-06T07:27:54;7.25;;;2.97;;
57055;SDS011;42945;51.718;5.324;2023-08-06T07:33:44;4.28;;;3.50;;
57055;SDS011;42945;51.718;5.324;2023-08-06T07:39:31;6.47;;;4.18;;
57055;SDS011;42945;51.718;5.324;2023-08-06T07:45:19;8.85;;;5.05;;
57055;SDS011;42945;51.718;5.324;2023-08-06T07:51:07;7.43;;;4.78;;
57055;SDS011;42945;51.718;5.324;2023-08-06T07:56:54;7.53;;;4.43;;
57055;SDS011;42945;51.718;5.324;2023-08-06T08:02:42;9.05;;;4.40;;
57055;SDS011;42945;51.718;5.324;2023-08-06T08:12:18;9.43;;;3.88;;
57055;SDS011;42945;51.718;5.324;2023-08-06T08:18:08;9.90;;;3.70;;
57055;SDS011;42945;51.718;5.324;2023-08-06T08:23:56;8.10;;;3.13;;
57055;SDS011;42945;51.718;5.324;2023-08-06T08:29:44;6.60;;;3.20;;
57055;SDS011;42945;51.718;5.324;2023-08-06T08:35:32;7.30;;;2.90;;
57055;SDS011;42945;51.718;5.324;2023-08-06T08:41:20;9.75;;;2.92;;
57055;SDS011;42945;51.718;5.324;2023-08-06T08:47:10;7.30;;;2.22;;
57055;SDS011;42945;51.718;5.324;2023-08-06T08:53:03;5.03;;;1.95;;
57055;SDS011;42945;51.718;5.324;2023-08-06T08:58:52;5.07;;;1.80;;
57055;SDS011;42945;51.718;5.324;2023-08-06T09:04:42;4.43;;;1.58;;
57055;SDS011;42945;51.718;5.324;2023-08-06T09:14:28;5.63;;;1.70;;
57055;SDS011;42945;51.718;5.324;2023-08-06T09:20:16;5.35;;;1.40;;
57055;SDS011;42945;51.718;5.324;2023-08-06T09:26:04;2.47;;;1.33;;
57055;SDS011;42945;51.718;5.324;2023-08-06T09:31:51;7.25;;;1.85;;
57055;SDS011;42945;51.718;5.324;2023-08-06T09:37:39;5.95;;;1.80;;
57055;SDS011;42945;51.718;5.324;2023-08-06T09:43:26;7.05;;;1.42;;
57055;SDS011;42945;51.718;5.324;2023-08-06T09:49:15;9.88;;;2.08;;
57055;SDS011;42945;51.718;5.324;2023-08-06T09:55:05;6.85;;;2.33;;
57055;SDS011;42945;51.718;5.324;2023-08-06T10:00:54;9.15;;;1.90;;
57055;SDS011;42945;51.718;5.324;2023-08-06T10:06:46;6.18;;;2.22;;
57055;SDS011;42945;51.718;5.324;2023-08-06T10:16:28;4.47;;;1.15;;
57055;SDS011;42945;51.718;5.324;2023-08-06T10:22:17;2.97;;;1.30;;
57055;SDS011;42945;51.718;5.324;2023-08-06T10:28:11;4.78;;;1.40;;
57055;SDS011;42945;51.718;5.324;2023-08-06T10:34:05;2.10;;;0.90;;
57055;SDS011;42945;51.718;5.324;2023-08-06T10:39:54;4.15;;;1.40;;
57055;SDS011;42945;51.718;5.324;2023-08-06T10:45:42;3.97;;;1.50;;
57055;SDS011;42945;51.718;5.324;2023-08-06T10:51:38;5.70;;;1.77;;
57055;SDS011;42945;51.718;5.324;2023-08-06T10:57:26;6.55;;;1.92;;
57055;SDS011;42945;51.718;5.324;2023-08-06T11:03:15;7.33;;;1.83;;
57055;SDS011;42945;51.718;5.324;2023-08-06T11:09:03;4.15;;;1.83;;
57055;SDS011;42945;51.718;5.324;2023-08-06T11:18:51;5.47;;;1.40;;
57055;SDS011;42945;51.718;5.324;2023-08-06T11:24:41;4.43;;;1.45;;
57055;SDS011;42945;51.718;5.324;2023-08-06T11:30:29;5.80;;;2.05;;
57055;SDS011;42945;51.718;5.324;2023-08-06T11:36:31;5.82;;;1.70;;
57055;SDS011;42945;51.718;5.324;2023-08-06T11:42:19;8.20;;;2.15;;
57055;SDS011;42945;51.718;5.324;2023-08-06T11:48:07;6.80;;;1.38;;
57055;SDS011;42945;51.718;5.324;2023-08-06T11:53:58;4.35;;;1.80;;
57055;SDS011;42945;51.718;5.324;2023-08-06T11:59:47;5.15;;;1.95;;
57055;SDS011;42945;51.718;5.324;2023-08-06T12:05:35;3.58;;;1.52;;
57055;SDS011;42945;51.718;5.324;2023-08-06T12:11:25;5.63;;;1.42;;
57055;SDS011;42945;51.718;5.324;2023-08-06T12:21:15;3.42;;;1.20;;
57055;SDS011;42945;51.718;5.324;2023-08-06T12:27:04;3.67;;;1.08;;
57055;SDS011;42945;51.718;5.324;2023-08-06T12:32:52;3.67;;;1.48;;
57055;SDS011;42945;51.718;5.324;2023-08-06T12:38:40;6.55;;;1.40;;
57055;SDS011;42945;51.718;5.324;2023-08-06T12:44:28;2.50;;;1.10;;
57055;SDS011;42945;51.718;5.324;2023-08-06T12:50:16;4.77;;;1.40;;
57055;SDS011;42945;51.718;5.324;2023-08-06T12:56:04;3.88;;;1.40;;
57055;SDS011;42945;51.718;5.324;2023-08-06T13:01:52;2.35;;;0.82;;
57055;SDS011;42945;51.718;5.324;2023-08-06T13:07:40;3.78;;;1.20;;
57055;SDS011;42945;51.718;5.324;2023-08-06T13:13:29;3.28;;;0.90;;
57055;SDS011;42945;51.718;5.324;2023-08-06T13:23:10;0.95;;;0.50;;
57055;SDS011;42945;51.718;5.324;2023-08-06T13:29:01;4.27;;;0.70;;
57055;SDS011;42945;51.718;5.324;2023-08-06T13:34:49;2.70;;;0.68;;
57055;SDS011;42945;51.718;5.324;2023-08-06T13:40:37;1.35;;;0.65;;
57055;SDS011;42945;51.718;5.324;2023-08-06T13:46:24;2.75;;;0.68;;
57055;SDS011;42945;51.718;5.324;2023-08-06T13:52:12;2.25;;;0.70;;
57055;SDS011;42945;51.718;5.324;2023-08-06T13:58:00;3.47;;;0.60;;
57055;SDS011;42945;51.718;5.324;2023-08-06T14:03:48;2.63;;;0.70;;
57055;SDS011;42945;51.718;5.324;2023-08-06T14:09:36;1.77;;;0.50;;
57055;SDS011;42945;51.718;5.324;2023-08-06T14:15:24;3.92;;;0.60;;
57055;SDS011;42945;51.718;5.324;2023-08-06T14:24:47;2.72;;;0.80;;
57055;SDS011;42945;51.718;5.324;2023-08-06T14:30:36;3.75;;;0.95;;
57055;SDS011;42945;51.718;5.324;2023-08-06T14:36:23;0.52;;;0.40;;
57055;SDS011;42945;51.718;5.324;2023-08-06T14:42:11;0.93;;;0.43;;
57055;SDS011;42945;51.718;5.324;2023-08-06T14:47:59;2.92;;;0.40;;
57055;SDS011;42945;51.718;5.324;2023-08-06T14:53:47;1.77;;;0.60;;
57055;SDS011;42945;51.718;5.324;2023-08-06T14:59:34;1.95;;;0.60;;
57055;SDS011;42945;51.718;5.324;2023-08-06T15:05:22;1.70;;;0.60;;
57055;SDS011;42945;51.718;5.324;2023-08-06T15:11:15;1.88;;;0.77;;
57055;SDS011;42945;51.718;5.324;2023-08-06T15:17:04;1.42;;;0.50;;
57055;SDS011;42945;51.718;5.324;2023-08-06T15:26:41;4.35;;;0.30;;
57055;SDS011;42945;51.718;5.324;2023-08-06T15:32:30;3.93;;;0.50;;
57055;SDS011;42945;51.718;5.324;2023-08-06T15:38:19;2.63;;;0.47;;
57055;SDS011;42945;51.718;5.324;2023-08-06T15:44:06;6.47;;;0.80;;
57055;SDS011;42945;51.718;5.324;2023-08-06T15:49:55;7.73;;;0.60;;
57055;SDS011;42945;51.718;5.324;2023-08-06T15:55:45;5.18;;;0.57;;
57055;SDS011;42945;51.718;5.324;2023-08-06T16:01:33;3.45;;;0.55;;
57055;SDS011;42945;51.718;5.324;2023-08-06T16:07:21;15.65;;;1.13;;
57055;SDS011;42945;51.718;5.324;2023-08-06T16:13:11;3.92;;;0.43;;
57055;SDS011;42945;51.718;5.324;2023-08-06T16:19:00;3.10;;;0.55;;
57055;SDS011;42945;51.718;5.324;2023-08-06T16:28:44;2.92;;;0.40;;
57055;SDS011;42945;51.718;5.324;2023-08-06T16:34:32;8.30;;;0.95;;
57055;SDS011;42945;51.718;5.324;2023-08-06T16:40:20;6.00;;;1.00;;
57055;SDS011;42945;51.718;5.324;2023-08-06T16:46:09;11.82;;;1.00;;
57055;SDS011;42945;51.718;5.324;2023-08-06T16:51:57;11.43;;;1.63;;
57055;SDS011;42945;51.718;5.324;2023-08-06T16:57:45;12.48;;;1.52;;
57055;SDS011;42945;51.718;5.324;2023-08-06T17:03:32;11.32;;;1.63;;
57055;SDS011;42945;51.718;5.324;2023-08-06T17:09:23;14.47;;;1.73;;
57055;SDS011;42945;51.718;5.324;2023-08-06T17:15:11;17.05;;;1.25;;
57055;SDS011;42945;51.718;5.324;2023-08-06T17:21:00;7.38;;;1.40;;
57055;SDS011;42945;51.718;5.324;2023-08-06T17:30:44;9.05;;;1.58;;
57055;SDS011;42945;51.718;5.324;2023-08-06T17:36:32;7.75;;;0.77;;
57055;SDS011;42945;51.718;5.324;2023-08-06T17:42:21;11.82;;;1.25;;
57055;SDS011;42945;51.718;5.324;2023-08-06T17:48:09;6.35;;;1.00;;
57055;SDS011;42945;51.718;5.324;2023-08-06T17:53:57;5.28;;;0.90;;
57055;SDS011;42945;51.718;5.324;2023-08-06T17:59:45;6.47;;;1.08;;
57055;SDS011;42945;51.718;5.324;2023-08-06T18:05:32;6.60;;;1.55;;
57055;SDS011;42945;51.718;5.324;2023-08-06T18:11:20;11.13;;;1.20;;
57055;SDS011;42945;51.718;5.324;2023-08-06T18:17:08;12.80;;;1.17;;
57055;SDS011;42945;51.718;5.324;2023-08-06T18:22:56;8.45;;;0.80;;
57055;SDS011;42945;51.718;5.324;2023-08-06T18:28:43;13.00;;;1.52;;
57055;SDS011;42945;51.718;5.324;2023-08-06T18:34:33;13.95;;;1.42;;
57055;SDS011;42945;51.718;5.324;2023-08-06T18:40:22;10.45;;;1.83;;
57055;SDS011;42945;51.718;5.324;2023-08-06T18:46:15;9.13;;;1.30;;
57055;SDS011;42945;51.718;5.324;2023-08-06T18:52:05;8.93;;;1.13;;
57055;SDS011;42945;51.718;5.324;2023-08-06T18:57:54;13.43;;;1.50;;
57055;SDS011;42945;51.718;5.324;2023-08-06T19:03:43;11.35;;;1.27;;
57055;SDS011;42945;51.718;5.324;2023-08-06T19:09:31;7.03;;;1.10;;
57055;SDS011;42945;51.718;5.324;2023-08-06T19:15:19;6.93;;;1.20;;
57055;SDS011;42945;51.718;5.324;2023-08-06T19:21:08;7.13;;;1.02;;
57055;SDS011;42945;51.718;5.324;2023-08-06T19:26:56;4.88;;;0.73;;
57055;SDS011;42945;51.718;5.324;2023-08-06T19:32:49;4.93;;;1.10;;
57055;SDS011;42945;51.718;5.324;2023-08-06T19:38:37;8.52;;;0.93;;
57055;SDS011;42945;51.718;5.324;2023-08-06T19:44:25;4.65;;;0.98;;
57055;SDS011;42945;51.718;5.324;2023-08-06T19:50:14;8.43;;;1.30;;
57055;SDS011;42945;51.718;5.324;2023-08-06T19:56:03;13.13;;;1.58;;
57055;SDS011;42945;51.718;5.324;2023-08-06T20:01:52;11.80;;;1.77;;
57055;SDS011;42945;51.718;5.324;2023-08-06T20:07:42;17.30;;;2.80;;
57055;SDS011;42945;51.718;5.324;2023-08-06T20:13:30;13.07;;;1.40;;
57055;SDS011;42945;51.718;5.324;2023-08-06T20:19:19;11.00;;;1.45;;
57055;SDS011;42945;51.718;5.324;2023-08-06T20:25:07;12.48;;;1.80;;
57055;SDS011;42945;51.718;5.324;2023-08-06T20:34:47;11.50;;;1.55;;
57055;SDS011;42945;51.718;5.324;2023-08-06T20:40:39;13.55;;;1.67;;
57055;SDS011;42945;51.718;5.324;2023-08-06T20:46:31;8.53;;;1.10;;
57055;SDS011;42945;51.718;5.324;2023-08-06T20:52:18;13.98;;;1.88;;
57055;SDS011;42945;51.718;5.324;2023-08-06T20:58:07;14.73;;;2.13;;
57055;SDS011;42945;51.718;5.324;2023-08-06T21:03:55;16.85;;;1.63;;
57055;SDS011;42945;51.718;5.324;2023-08-06T21:09:44;12.43;;;2.17;;
57055;SDS011;42945;51.718;5.324;2023-08-06T21:15:32;12.52;;;1.80;;
57055;SDS011;42945;51.718;5.324;2023-08-06T21:21:20;8.63;;;1.50;;
57055;SDS011;42945;51.718;5.324;2023-08-06T21:27:08;13.33;;;2.27;;
57055;SDS011;42945;51.718;5.324;2023-08-06T21:36:51;8.75;;;1.48;;
57055;SDS011;42945;51.718;5.324;2023-08-06T21:42:39;15.73;;;2.00;;
57055;SDS011;42945;51.718;5.324;2023-08-06T21:48:27;10.67;;;2.13;;
57055;SDS011;42945;51.718;5.324;2023-08-06T21:54:15;12.60;;;1.58;;
57055;SDS011;42945;51.718;5.324;2023-08-06T22:00:04;13.85;;;1.77;;
57055;SDS011;42945;51.718;5.324;2023-08-06T22:05:54;11.40;;;1.70;;
57055;SDS011;42945;51.718;5.324;2023-08-06T22:11:42;9.93;;;1.42;;
57055;SDS011;42945;51.718;5.324;2023-08-06T22:17:31;8.23;;;1.38;;
57055;SDS011;42945;51.718;5.324;2023-08-06T22:23:22;9.55;;;1.45;;
57055;SDS011;42945;51.718;5.324;2023-08-06T22:29:11;12.38;;;1.90;;
57055;SDS011;42945;51.718;5.324;2023-08-06T22:38:53;10.45;;;1.73;;
57055;SDS011;42945;51.718;5.324;2023-08-06T22:44:42;15.45;;;1.88;;
57055;SDS011;42945;51.718;5.324;2023-08-06T22:50:29;9.65;;;1.33;;
57055;SDS011;42945;51.718;5.324;2023-08-06T22:56:17;12.38;;;1.77;;
57055;SDS011;42945;51.718;5.324;2023-08-06T23:02:05;12.02;;;1.83;;
57055;SDS011;42945;51.718;5.324;2023-08-06T23:07:53;10.52;;;1.90;;
57055;SDS011;42945;51.718;5.324;2023-08-06T23:13:45;10.18;;;1.33;;
57055;SDS011;42945;51.718;5.324;2023-08-06T23:19:37;12.10;;;1.25;;
57055;SDS011;42945;51.718;5.324;2023-08-06T23:25:25;10.15;;;1.45;;
57055;SDS011;42945;51.718;5.324;2023-08-06T23:31:13;15.55;;;1.83;;
57055;SDS011;42945;51.718;5.324;2023-08-06T23:40:56;10.88;;;1.65;;
57055;SDS011;42945;51.718;5.324;2023-08-06T23:46:44;11.50;;;1.88;;
57055;SDS011;42945;51.718;5.324;2023-08-06T23:52:32;7.53;;;1.13;;
57055;SDS011;42945;51.718;5.324;2023-08-06T23:58:19;9.93;;;1.70;;
